Observation data for Northfield on 09/17/2019      Previous  Date       Current Mesonet Observations  Soil Data  Daily Summary Page  Observations in Plain Language
KNOR 170500Z 15008KT 25/15 A3001 RMK A01 T02460148  RH  057%=      5-min Rain = 0
KNOR 170505Z 15007KT 25/15 A3001 RMK A01 T02460148  RH  057%=      5-min Rain = 0
KNOR 170510Z 15007KT 24/15 A3001 RMK A01 T02440149  RH  058%=      5-min Rain = 0
KNOR 170515Z 15007KT 24/15 A3001 RMK A01 T02420149  RH  059%=      5-min Rain = 0
KNOR 170520Z 15007KT 24/15 A3001 RMK A01 T02410149  RH  059%=      5-min Rain = 0
KNOR 170525Z 15008KT 24/15 A3001 RMK A01 T02400150  RH  060%=      5-min Rain = 0
KNOR 170530Z 15008KT 24/15 A3001 RMK A01 T02400150  RH  060%=      5-min Rain = 0
KNOR 170535Z 16008KT 24/15 A3001 RMK A01 T02400150  RH  060%=      5-min Rain = 0
KNOR 170540Z 16008KT 24/15 A3001 RMK A01 T02380151  RH  061%=      5-min Rain = 0
KNOR 170545Z 16008KT 24/15 A3001 RMK A01 T02360151  RH  062%=      5-min Rain = 0
KNOR 170550Z 15008KT 24/15 A3001 RMK A01 T02370151  RH  061%=      5-min Rain = 0
KNOR 170555Z 16009KT 24/15 A3001 RMK A01 T02400151  RH  060%=      5-min Rain = 0
KNOR 170600Z 16009KT 24/15 A3001 RMK A01 T02430150  RH  059%=      5-min Rain = 0
KNOR 170605Z 16009KT 24/15 A3001 RMK A01 T02440151  RH  059%=      5-min Rain = 0
KNOR 170610Z 16009KT 24/15 A3001 RMK A01 T02420151  RH  059%=      5-min Rain = 0
KNOR 170615Z 16009KT 24/15 A3001 RMK A01 T02420151  RH  059%=      5-min Rain = 0
KNOR 170620Z 16009KT 24/15 A3001 RMK A01 T02430151  RH  059%=      5-min Rain = 0
KNOR 170625Z 16009KT 24/15 A3001 RMK A01 T02410151  RH  060%=      5-min Rain = 0
KNOR 170630Z 16009KT 24/15 A3001 RMK A01 T02390152  RH  061%=      5-min Rain = 0
KNOR 170635Z 16009KT 24/15 A3001 RMK A01 T02390152  RH  061%=      5-min Rain = 0
KNOR 170640Z 16009KT 24/15 A3001 RMK A01 T02380152  RH  061%=      5-min Rain = 0
KNOR 170645Z 16009KT 24/15 A3001 RMK A01 T02390152  RH  061%=      5-min Rain = 0
KNOR 170650Z 16009KT 24/15 A3001 RMK A01 T02390152  RH  061%=      5-min Rain = 0
KNOR 170655Z 16009KT 24/15 A3001 RMK A01 T02390152  RH  061%=      5-min Rain = 0
KNOR 170700Z 16009KT 24/15 A3001 RMK A01 T02380152  RH  061%=      5-min Rain = 0
KNOR 170705Z 16009KT 24/15 A3001 RMK A01 T02360152  RH  062%=      5-min Rain = 0
KNOR 170710Z 16009KT 24/15 A3001 RMK A01 T02350152  RH  062%=      5-min Rain = 0
KNOR 170715Z 16009KT 23/15 A3001 RMK A01 T02340152  RH  063%=      5-min Rain = 0
KNOR 170720Z 16009KT 23/15 A3001 RMK A01 T02320152  RH  063%=      5-min Rain = 0
KNOR 170725Z 16009KT 23/15 A3001 RMK A01 T02320152  RH  063%=      5-min Rain = 0
KNOR 170730Z 16009KT 23/15 A3001 RMK A01 T02330152  RH  063%=      5-min Rain = 0
KNOR 170735Z 16009KT 23/15 A3001 RMK A01 T02330152  RH  063%=      5-min Rain = 0
KNOR 170740Z 16009KT 23/15 A3001 RMK A01 T02320152  RH  064%=      5-min Rain = 0
KNOR 170745Z 16009KT 23/15 A3001 RMK A01 T02310152  RH  064%=      5-min Rain = 0
KNOR 170750Z 16009KT 23/15 A3001 RMK A01 T02300152  RH  064%=      5-min Rain = 0
KNOR 170755Z 15009KT 23/15 A3001 RMK A01 T02290152  RH  065%=      5-min Rain = 0
KNOR 170800Z 15009KT 23/15 A3001 RMK A01 T02270152  RH  065%=      5-min Rain = 0
KNOR 170805Z 15009KT 23/15 A3001 RMK A01 T02260152  RH  066%=      5-min Rain = 0
KNOR 170810Z 15009KT 23/15 A3001 RMK A01 T02260152  RH  066%=      5-min Rain = 0
KNOR 170815Z 16009KT 23/15 A3001 RMK A01 T02270152  RH  065%=      5-min Rain = 0
KNOR 170820Z 16009KT 23/15 A3001 RMK A01 T02260152  RH  066%=      5-min Rain = 0
KNOR 170825Z 15009KT 23/15 A3001 RMK A01 T02260152  RH  066%=      5-min Rain = 0
KNOR 170830Z 15008KT 23/15 A3001 RMK A01 T02260151  RH  066%=      5-min Rain = 0
KNOR 170835Z 15008KT 23/15 A3001 RMK A01 T02250151  RH  066%=      5-min Rain = 0
KNOR 170840Z 15008KT 22/15 A3001 RMK A01 T02230152  RH  067%=      5-min Rain = 0
KNOR 170845Z 15008KT 22/15 A3001 RMK A01 T02230152  RH  067%=      5-min Rain = 0
KNOR 170850Z 15008KT 22/15 A3001 RMK A01 T02230152  RH  067%=      5-min Rain = 0
KNOR 170855Z 15008KT 22/15 A3001 RMK A01 T02240152  RH  067%=      5-min Rain = 0
KNOR 170900Z 15007KT 22/15 A3001 RMK A01 T02230152  RH  067%=      5-min Rain = 0
KNOR 170905Z 15007KT 22/15 A3001 RMK A01 T02210152  RH  068%=      5-min Rain = 0
KNOR 170910Z 15007KT 22/15 A3001 RMK A01 T02200152  RH  068%=      5-min Rain = 0
KNOR 170915Z 15007KT 22/15 A3001 RMK A01 T02190152  RH  069%=      5-min Rain = 0
KNOR 170920Z 16007KT 22/15 A3001 RMK A01 T02180152  RH  069%=      5-min Rain = 0
KNOR 170925Z 16007KT 22/15 A30 RMK A01 T02170152  RH  070%=      5-min Rain = 0
KNOR 170930Z 15007KT 22/15 A30 RMK A01 T02160152  RH  070%=      5-min Rain = 0
KNOR 170935Z 16007KT 22/15 A30 RMK A01 T02160152  RH  070%=      5-min Rain = 0
KNOR 170940Z 15008KT 22/15 A30 RMK A01 T02150152  RH  070%=      5-min Rain = 0
KNOR 170945Z 15008KT 22/15 A30 RMK A01 T02170152  RH  069%=      5-min Rain = 0
KNOR 170950Z 15008KT 22/15 A30 RMK A01 T02170151  RH  069%=      5-min Rain = 0
KNOR 170955Z 15008KT 22/15 A30 RMK A01 T02160151  RH  070%=      5-min Rain = 0
KNOR 171000Z 15007KT 22/15 A30 RMK A01 T02150151  RH  070%=      5-min Rain = 0
KNOR 171005Z 14008KT 21/15 A30 RMK A01 T02140151  RH  071%=      5-min Rain = 0
KNOR 171010Z 15008KT 21/15 A30 RMK A01 T02130152  RH  071%=      5-min Rain = 0
KNOR 171015Z 15008KT 21/15 A30 RMK A01 T02130152  RH  071%=      5-min Rain = 0
KNOR 171020Z 15007KT 21/15 A30 RMK A01 T02120152  RH  071%=      5-min Rain = 0
KNOR 171025Z 16008KT 21/15 A30 RMK A01 T02110152  RH  072%=      5-min Rain = 0
KNOR 171030Z 16008KT 21/15 A30 RMK A01 T02100152  RH  073%=      5-min Rain = 0
KNOR 171035Z 16007KT 21/15 A3001 RMK A01 T02100152  RH  073%=      5-min Rain = 0
KNOR 171040Z 16007KT 21/15 A3001 RMK A01 T02090152  RH  073%=      5-min Rain = 0
KNOR 171045Z 16007KT 21/15 A3001 RMK A01 T02080152  RH  074%=      5-min Rain = 0
KNOR 171050Z 16007KT 21/15 A3001 RMK A01 T02070152  RH  074%=      5-min Rain = 0
KNOR 171055Z 16007KT 21/15 A3001 RMK A01 T02070152  RH  074%=      5-min Rain = 0
KNOR 171100Z 16007KT 21/15 A3001 RMK A01 T02060152  RH  074%=      5-min Rain = 0
KNOR 171105Z 16007KT 21/15 A3001 RMK A01 T02060152  RH  074%=      5-min Rain = 0
KNOR 171110Z 16007KT 21/15 A3001 RMK A01 T02070152  RH  074%=      5-min Rain = 0
KNOR 171115Z 17007KT 21/15 A3001 RMK A01 T02070152  RH  074%=      5-min Rain = 0
KNOR 171120Z 17007KT 21/15 A3001 RMK A01 T02080152  RH  073%=      5-min Rain = 0
KNOR 171125Z 17007KT 21/15 A3002 RMK A01 T02090151  RH  073%=      5-min Rain = 0
KNOR 171130Z 17007KT 21/15 A3002 RMK A01 T02080151  RH  073%=      5-min Rain = 0
KNOR 171135Z 17008KT 21/15 A3002 RMK A01 T02090151  RH  073%=      5-min Rain = 0
KNOR 171140Z 17008KT 21/15 A3001 RMK A01 T02090151  RH  073%=      5-min Rain = 0
KNOR 171145Z 17008KT 21/15 A3001 RMK A01 T02100151  RH  072%=      5-min Rain = 0
KNOR 171150Z 17008KT 21/15 A3001 RMK A01 T02100151  RH  072%=      5-min Rain = 0
KNOR 171155Z 17009KT 21/15 A3001 RMK A01 T02100151  RH  072%=      5-min Rain = 0
KNOR 171200Z 17010KT 21/15 A3001 RMK A01 T02120150  RH  071%=      5-min Rain = 0
KNOR 171205Z 17009KT 21/15 A3002 RMK A01 T02110150  RH  071%=      5-min Rain = 0
KNOR 171210Z 17009KT 21/15 A3002 RMK A01 T02110150  RH  071%=      5-min Rain = 0
KNOR 171215Z 17010KT 21/15 A3002 RMK A01 T02110150  RH  071%=      5-min Rain = 0
KNOR 171220Z 17010KT 21/15 A3002 RMK A01 T02110150  RH  071%=      5-min Rain = 0
KNOR 171225Z 17009KT 21/15 A3002 RMK A01 T02100150  RH  072%=      5-min Rain = 0
KNOR 171230Z 16010KT 21/15 A3002 RMK A01 T02090150  RH  072%=      5-min Rain = 0
KNOR 171235Z 17010KT 21/15 A3002 RMK A01 T02080150  RH  073%=      5-min Rain = 0
KNOR 171240Z 17010KT 21/15 A3002 RMK A01 T02090150  RH  072%=      5-min Rain = 0
KNOR 171245Z 17009KT 21/15 A3002 RMK A01 T02100150  RH  072%=      5-min Rain = 0
KNOR 171250Z 17009KT 21/15 A3002 RMK A01 T02100150  RH  072%=      5-min Rain = 0
KNOR 171255Z 17010KT 21/15 A3002 RMK A01 T02110150  RH  072%=      5-min Rain = 0
KNOR 171300Z 17010KT 21/15 A3002 RMK A01 T02120151  RH  071%=      5-min Rain = 0
KNOR 171305Z 17010KT 21/15 A3002 RMK A01 T02140151  RH  070%=      5-min Rain = 0
KNOR 171310Z 17011KT 22/15 A3002 RMK A01 T02170151  RH  069%=      5-min Rain = 0
KNOR 171315Z 17010G15KT 22/15 A3002 RMK A01 T02200151  RH  068%=      5-min Rain = 0
KNOR 171320Z 17011KT 22/15 A3002 RMK A01 T02230151  RH  067%=      5-min Rain = 0
KNOR 171325Z 17011G16KT 23/15 A3002 RMK A01 T02260151  RH  065%=      5-min Rain = 0
KNOR 171330Z 17012KT 23/15 A3002 RMK A01 T02290151  RH  064%=      5-min Rain = 0
KNOR 171335Z 17011KT 23/15 A3002 RMK A01 T02310151  RH  064%=      5-min Rain = 0
KNOR 171340Z 17011KT 24/15 A3002 RMK A01 T02350152  RH  062%=      5-min Rain = 0
KNOR 171345Z 17011KT 24/15 A3002 RMK A01 T02360151  RH  062%=      5-min Rain = 0
KNOR 171350Z 18011KT 24/15 A3002 RMK A01 T02390151  RH  061%=      5-min Rain = 0
KNOR 171355Z 18011G16KT 24/15 A3002 RMK A01 T02410152  RH  060%=      5-min Rain = 0
KNOR 171400Z 17012KT 24/15 A3002 RMK A01 T02420152  RH  060%=      5-min Rain = 0
KNOR 171405Z 17012KT 24/15 A3002 RMK A01 T02440153  RH  060%=      5-min Rain = 0
KNOR 171410Z 17012KT 25/15 A3002 RMK A01 T02460153  RH  059%=      5-min Rain = 0
KNOR 171415Z 17013KT 25/15 A3002 RMK A01 T02500154  RH  058%=      5-min Rain = 0
KNOR 171420Z 17014KT 25/15 A3002 RMK A01 T02530154  RH  057%=      5-min Rain = 0
KNOR 171425Z 17014G20KT 26/15 A3002 RMK A01 T02580154  RH  055%=      5-min Rain = 0
KNOR 171430Z 17013KT 26/15 A3002 RMK A01 T02600154  RH  055%=      5-min Rain = 0
KNOR 171435Z 17014G20KT 26/15 A3002 RMK A01 T02610154  RH  054%=      5-min Rain = 0
KNOR 171440Z 18013KT 26/16 A3002 RMK A01 T02640155  RH  054%=      5-min Rain = 0
KNOR 171445Z 18012KT 27/16 A3002 RMK A01 T02680156  RH  053%=      5-min Rain = 0
KNOR 171450Z 18012KT 27/16 A3003 RMK A01 T02710157  RH  052%=      5-min Rain = 0
KNOR 171455Z 18013G20KT 27/16 A3003 RMK A01 T02730157  RH  051%=      5-min Rain = 0
KNOR 171500Z 18013G18KT 28/16 A3003 RMK A01 T02760157  RH  050%=      5-min Rain = 0
KNOR 171505Z 18013KT 28/16 A3003 RMK A01 T02780157  RH  050%=      5-min Rain = 0
KNOR 171510Z 18012KT 28/16 A3003 RMK A01 T02820157  RH  049%=      5-min Rain = 0
KNOR 171515Z 18013KT 28/16 A3003 RMK A01 T02820156  RH  048%=      5-min Rain = 0
KNOR 171520Z 19011KT 28/16 A3003 RMK A01 T02800157  RH  050%=      5-min Rain = 0
KNOR 171525Z 18011KT 29/16 A3003 RMK A01 T02860157  RH  048%=      5-min Rain = 0
KNOR 171530Z 17011KT 29/16 A3003 RMK A01 T02890157  RH  047%=      5-min Rain = 0
KNOR 171535Z 19011KT 29/16 A3003 RMK A01 T02910155  RH  046%=      5-min Rain = 0
KNOR 171540Z 19011KT 29/16 A3003 RMK A01 T02940155  RH  045%=      5-min Rain = 0
KNOR 171545Z 19011G16KT 29/15 A3003 RMK A01 T02930152  RH  044%=      5-min Rain = 0
KNOR 171550Z 20011KT 30/15 A3003 RMK A01 T02980151  RH  043%=      5-min Rain = 0
KNOR 171555Z 20011KT 30/15 A3003 RMK A01 T02980151  RH  043%=      5-min Rain = 0
KNOR 171600Z 20011G18KT 30/15 A3003 RMK A01 T03010150  RH  042%=      5-min Rain = 0
KNOR 171605Z 19011KT 30/15 A3004 RMK A01 T03000148  RH  041%=      5-min Rain = 0
KNOR 171610Z 19009KT 30/15 A3003 RMK A01 T03020150  RH  041%=      5-min Rain = 0
KNOR 171615Z 18009KT 31/15 A3004 RMK A01 T03050150  RH  041%=      5-min Rain = 0
KNOR 171620Z 18008KT 31/15 A3004 RMK A01 T03110152  RH  040%=      5-min Rain = 0
KNOR 171625Z 17010KT 31/15 A3004 RMK A01 T03100147  RH  039%=      5-min Rain = 0
KNOR 171630Z 18009KT 31/15 A3003 RMK A01 T03100148  RH  039%=      5-min Rain = 0
KNOR 171635Z 17009KT 31/15 A3003 RMK A01 T03110147  RH  039%=      5-min Rain = 0
KNOR 171640Z 16009KT 31/15 A3003 RMK A01 T03130147  RH  038%=      5-min Rain = 0
KNOR 171645Z 17008KT 32/15 A3003 RMK A01 T03150148  RH  038%=      5-min Rain = 0
KNOR 171650Z 17009G14KT 32/15 A3003 RMK A01 T03170148  RH  038%=      5-min Rain = 0
KNOR 171655Z 18008G13KT 32/15 A3003 RMK A01 T03170149  RH  038%=      5-min Rain = 0
KNOR 171700Z 18008KT 32/15 A3003 RMK A01 T03170148  RH  037%=      5-min Rain = 0
KNOR 171705Z 17008G13KT 32/15 A3003 RMK A01 T03190149  RH  038%=      5-min Rain = 0
KNOR 171710Z 20006KT 32/15 A3003 RMK A01 T03200151  RH  038%=      5-min Rain = 0
KNOR 171715Z 20008KT 32/15 A3002 RMK A01 T03230149  RH  037%=      5-min Rain = 0
KNOR 171720Z 18007G13KT 32/15 A3002 RMK A01 T03240148  RH  036%=      5-min Rain = 0
KNOR 171725Z 19007G13KT 32/14 A3002 RMK A01 T03200144  RH  036%=      5-min Rain = 0
KNOR 171730Z 20008G14KT 33/15 A3002 RMK A01 T03250146  RH  035%=      5-min Rain = 0
KNOR 171735Z 18007KT 33/15 A3002 RMK A01 T03280148  RH  035%=      5-min Rain = 0
KNOR 171740Z 18009G15KT 33/14 A3001 RMK A01 T03290142  RH  034%=      5-min Rain = 0
KNOR 171745Z 17009G16KT 33/14 A3001 RMK A01 T03290141  RH  034%=      5-min Rain = 0
KNOR 171750Z 19006G11KT 33/14 A3001 RMK A01 T03310141  RH  033%=      5-min Rain = 0
KNOR 171755Z 20008G13KT 33/14 A3001 RMK A01 T03320140  RH  033%=      5-min Rain = 0
KNOR 171800Z 17007G13KT 33/14 A3001 RMK A01 T03320141  RH  033%=      5-min Rain = 0
KNOR 171805Z 16008G13KT 34/14 A3001 RMK A01 T03370137  RH  031%=      5-min Rain = 0
KNOR 171810Z 21009KT 34/14 A30 RMK A01 T03420141  RH  031%=      5-min Rain = 0
KNOR 171815Z 21008KT 32/14 A30 RMK A01 T03240136  RH  033%=      5-min Rain = 0
KNOR 171820Z 20009KT 32/14 A30 RMK A01 T03160137  RH  035%=      5-min Rain = 0
KNOR 171825Z 20004G9KT 32/14 A30 RMK A01 T03200137  RH  034%=      5-min Rain = 0
KNOR 171830Z 19008G13KT 34/14 A30 RMK A01 T03380139  RH  032%=      5-min Rain = 0
KNOR 171835Z 17009KT 32/14 A30 RMK A01 T03220138  RH  034%=      5-min Rain = 0
KNOR 171840Z 16004KT 32/14 A2999 RMK A01 T03230141  RH  035%=      5-min Rain = 0
KNOR 171845Z 15008G15KT 33/14 A2999 RMK A01 T03340138  RH  032%=      5-min Rain = 0
KNOR 171850Z 16010KT 33/14 A2999 RMK A01 T03290135  RH  032%=      5-min Rain = 0
KNOR 171855Z 15009G16KT 32/13 A2998 RMK A01 T03230133  RH  033%=      5-min Rain = 0
KNOR 171900Z 18012G18KT 34/14 A2998 RMK A01 T03400137  RH  031%=      5-min Rain = 0
KNOR 171905Z 16010KT 34/14 A2998 RMK A01 T03420136  RH  030%=      5-min Rain = 0
KNOR 171910Z 18010G17KT 33/13 A2998 RMK A01 T03280132  RH  032%=      5-min Rain = 0
KNOR 171915Z 18008G14KT 32/13 A2997 RMK A01 T03210132  RH  033%=      5-min Rain = 0
KNOR 171920Z 17012G18KT 33/13 A2997 RMK A01 T03330130  RH  031%=      5-min Rain = 0
KNOR 171925Z 15010G16KT 34/13 A2997 RMK A01 T03440131  RH  029%=      5-min Rain = 0
KNOR 171930Z 16009G17KT 35/13 A2997 RMK A01 T03460133  RH  029%=      5-min Rain = 0
KNOR 171935Z 18010KT 35/13 A2997 RMK A01 T03470130  RH  028%=      5-min Rain = 0
KNOR 171940Z 18011G18KT 34/13 A2996 RMK A01 T03430127  RH  028%=      5-min Rain = 0
KNOR 171945Z 17010G15KT 34/13 A2996 RMK A01 T03420126  RH  028%=      5-min Rain = 0
KNOR 171950Z 19010G15KT 35/13 A2996 RMK A01 T03450127  RH  028%=      5-min Rain = 0
KNOR 171955Z 17008KT 35/13 A2996 RMK A01 T03460129  RH  028%=      5-min Rain = 0
KNOR 172000Z 17009G15KT 34/13 A2996 RMK A01 T03410133  RH  030%=      5-min Rain = 0
KNOR 172005Z 17012G20KT 34/13 A2995 RMK A01 T03410131  RH  029%=      5-min Rain = 0
KNOR 172010Z 18011G18KT 34/13 A2995 RMK A01 T03420127  RH  028%=      5-min Rain = 0
KNOR 172015Z 19009KT 35/13 A2995 RMK A01 T03490134  RH  029%=      5-min Rain = 0
KNOR 172020Z 17010G15KT 35/13 A2995 RMK A01 T03500130  RH  028%=      5-min Rain = 0
KNOR 172025Z 16008G14KT 35/13 A2995 RMK A01 T03500130  RH  028%=      5-min Rain = 0
KNOR 172030Z 18008G15KT 35/13 A2995 RMK A01 T03500128  RH  027%=      5-min Rain = 0
KNOR 172035Z 19010G16KT 35/12 A2994 RMK A01 T03490123  RH  027%=      5-min Rain = 0
KNOR 172040Z 19010KT 35/12 A2994 RMK A01 T03490121  RH  026%=      5-min Rain = 0
KNOR 172045Z 18009G16KT 35/13 A2994 RMK A01 T03510127  RH  027%=      5-min Rain = 0
KNOR 172050Z 21009KT 35/13 A2994 RMK A01 T03510130  RH  028%=      5-min Rain = 0
KNOR 172055Z 19009KT 35/13 A2994 RMK A01 T03530132  RH  028%=      5-min Rain = 0
KNOR 172100Z 19007KT 35/14 A2993 RMK A01 T03540135  RH  028%=      5-min Rain = 0
KNOR 172105Z 16011KT 35/13 A2993 RMK A01 T03460133  RH  029%=      5-min Rain = 0
KNOR 172110Z 16012G17KT 33/13 A2993 RMK A01 T03280133  RH  032%=      5-min Rain = 0
KNOR 172115Z 16009KT 34/14 A2993 RMK A01 T03430137  RH  030%=      5-min Rain = 0
KNOR 172120Z 14009G14KT 35/14 A2993 RMK A01 T03450135  RH  030%=      5-min Rain = 0
KNOR 172125Z 14010KT 34/14 A2993 RMK A01 T03390135  RH  030%=      5-min Rain = 0
KNOR 172130Z 14013G18KT 35/13 A2992 RMK A01 T03450133  RH  029%=      5-min Rain = 0
KNOR 172135Z 15010G16KT 35/13 A2992 RMK A01 T03450133  RH  029%=      5-min Rain = 0
KNOR 172140Z 16011KT 33/13 A2992 RMK A01 T03320129  RH  030%=      5-min Rain = 0
KNOR 172145Z 16010G16KT 33/13 A2992 RMK A01 T03260129  RH  031%=      5-min Rain = 0
KNOR 172150Z 15010KT 33/13 A2992 RMK A01 T03330130  RH  030%=      5-min Rain = 0
KNOR 172155Z 16012KT 35/13 A2992 RMK A01 T03450131  RH  029%=      5-min Rain = 0
KNOR 172200Z 15012G18KT 34/13 A2992 RMK A01 T03440130  RH  029%=      5-min Rain = 0
KNOR 172205Z 14013G20KT 35/13 A2992 RMK A01 T03450129  RH  028%=      5-min Rain = 0
KNOR 172210Z 15013KT 34/13 A2992 RMK A01 T03430129  RH  029%=      5-min Rain = 0
KNOR 172215Z 15010KT 34/13 A2992 RMK A01 T03360128  RH  030%=      5-min Rain = 0
KNOR 172220Z 14006KT 33/13 A2992 RMK A01 T03310130  RH  031%=      5-min Rain = 0
KNOR 172225Z 14008G14KT 34/13 A2992 RMK A01 T03400133  RH  030%=      5-min Rain = 0
KNOR 172230Z 13011G18KT 34/13 A2991 RMK A01 T03430131  RH  029%=      5-min Rain = 0
KNOR 172235Z 15013KT 34/13 A2991 RMK A01 T03400130  RH  029%=      5-min Rain = 0
KNOR 172240Z 16012G18KT 34/13 A2991 RMK A01 T03400130  RH  029%=      5-min Rain = 0
KNOR 172245Z 15013KT 34/13 A2991 RMK A01 T03390130  RH  029%=      5-min Rain = 0
KNOR 172250Z 15014G19KT 34/13 A2991 RMK A01 T03360132  RH  030%=      5-min Rain = 0
KNOR 172255Z 15011KT 34/13 A2991 RMK A01 T03360132  RH  030%=      5-min Rain = 0
KNOR 172300Z 15011G16KT 34/13 A2991 RMK A01 T03350133  RH  031%=      5-min Rain = 0
KNOR 172305Z 14012KT 34/13 A2991 RMK A01 T03360132  RH  030%=      5-min Rain = 0
KNOR 172310Z 14013G19KT 33/13 A2991 RMK A01 T03340131  RH  030%=      5-min Rain = 0
KNOR 172315Z 15014G19KT 33/13 A2991 RMK A01 T03320131  RH  031%=      5-min Rain = 0
KNOR 172320Z 14011KT 33/13 A2991 RMK A01 T03320132  RH  031%=      5-min Rain = 0
KNOR 172325Z 13012KT 33/13 A2991 RMK A01 T03300131  RH  031%=      5-min Rain = 0
KNOR 172330Z 14011KT 33/13 A2991 RMK A01 T03300131  RH  031%=      5-min Rain = 0
KNOR 172335Z 14011KT 33/13 A2991 RMK A01 T03290130  RH  031%=      5-min Rain = 0
KNOR 172340Z 15010KT 33/13 A2991 RMK A01 T03290131  RH  031%=      5-min Rain = 0
KNOR 172345Z 14011KT 33/13 A2991 RMK A01 T03280129  RH  031%=      5-min Rain = 0
KNOR 172350Z 15011KT 33/13 A2991 RMK A01 T03270130  RH  031%=      5-min Rain = 0
KNOR 172355Z 14011KT 33/13 A2991 RMK A01 T03260129  RH  032%=      5-min Rain = 0
KNOR 180000Z 15010KT 33/13 A2991 RMK A01 T03250130  RH  032%=      5-min Rain = 0
KNOR 180005Z 14011KT 32/13 A2991 RMK A01 T03230129  RH  032%=      5-min Rain = 0
KNOR 180010Z 15011G16KT 32/13 A2991 RMK A01 T03210129  RH  032%=      5-min Rain = 0
KNOR 180015Z 14010G15KT 32/13 A2991 RMK A01 T03190129  RH  033%=      5-min Rain = 0
KNOR 180020Z 14010G15KT 32/13 A2991 RMK A01 T03170128  RH  033%=      5-min Rain = 0
KNOR 180025Z 15009KT 31/13 A2991 RMK A01 T03140129  RH  034%=      5-min Rain = 0
KNOR 180030Z 14008KT 31/13 A2991 RMK A01 T03110130  RH  034%=      5-min Rain = 0
KNOR 180035Z 14008KT 31/13 A2991 RMK A01 T03080131  RH  035%=      5-min Rain = 0
KNOR 180040Z 14008KT 30/13 A2991 RMK A01 T03040131  RH  036%=      5-min Rain = 0
KNOR 180045Z 14007KT 30/13 A2991 RMK A01 T03000133  RH  037%=      5-min Rain = 0
KNOR 180050Z 14006KT 30/13 A2991 RMK A01 T02950134  RH  039%=      5-min Rain = 0
KNOR 180055Z 14007KT 29/13 A2991 RMK A01 T02920134  RH  040%=      5-min Rain = 0
KNOR 180100Z 14007KT 29/14 A2991 RMK A01 T02900135  RH  040%=      5-min Rain = 0
KNOR 180105Z 13007KT 29/14 A2992 RMK A01 T02870136  RH  041%=      5-min Rain = 0
KNOR 180110Z 13007KT 28/14 A2992 RMK A01 T02840137  RH  042%=      5-min Rain = 0
KNOR 180115Z 14007KT 28/14 A2992 RMK A01 T02800138  RH  043%=      5-min Rain = 0
KNOR 180120Z 14007KT 28/14 A2992 RMK A01 T02790138  RH  044%=      5-min Rain = 0
KNOR 180125Z 14007KT 28/14 A2992 RMK A01 T02760137  RH  044%=      5-min Rain = 0
KNOR 180130Z 14008KT 28/14 A2992 RMK A01 T02770136  RH  044%=      5-min Rain = 0
KNOR 180135Z 14008KT 28/14 A2992 RMK A01 T02770136  RH  044%=      5-min Rain = 0
KNOR 180140Z 14008KT 28/14 A2992 RMK A01 T02780136  RH  043%=      5-min Rain = 0
KNOR 180145Z 14008KT 28/14 A2993 RMK A01 T02770136  RH  044%=      5-min Rain = 0
KNOR 180150Z 14008KT 28/14 A2993 RMK A01 T02760136  RH  044%=      5-min Rain = 0
KNOR 180155Z 14008KT 28/14 A2993 RMK A01 T02750137  RH  044%=      5-min Rain = 0
KNOR 180200Z 14008KT 27/14 A2993 RMK A01 T02730137  RH  045%=      5-min Rain = 0
KNOR 180205Z 14008KT 27/14 A2993 RMK A01 T02720137  RH  045%=      5-min Rain = 0
KNOR 180210Z 14008KT 27/14 A2993 RMK A01 T02710137  RH  046%=      5-min Rain = 0
KNOR 180215Z 14009KT 27/14 A2994 RMK A01 T02710136  RH  045%=      5-min Rain = 0
KNOR 180220Z 14009KT 27/14 A2994 RMK A01 T02740136  RH  044%=      5-min Rain = 0
KNOR 180225Z 14010KT 28/14 A2994 RMK A01 T02790135  RH  043%=      5-min Rain = 0
KNOR 180230Z 14010KT 28/14 A2994 RMK A01 T02790136  RH  043%=      5-min Rain = 0
KNOR 180235Z 15010KT 28/14 A2994 RMK A01 T02780138  RH  044%=      5-min Rain = 0
KNOR 180240Z 15011KT 28/14 A2994 RMK A01 T02770139  RH  044%=      5-min Rain = 0
KNOR 180245Z 15010KT 28/14 A2994 RMK A01 T02750140  RH  045%=      5-min Rain = 0
KNOR 180250Z 15009KT 27/14 A2995 RMK A01 T02730141  RH  046%=      5-min Rain = 0
KNOR 180255Z 15009KT 27/14 A2995 RMK A01 T02710142  RH  047%=      5-min Rain = 0
KNOR 180300Z 15009KT 27/14 A2995 RMK A01 T02680143  RH  048%=      5-min Rain = 0
KNOR 180305Z 15009KT 27/14 A2995 RMK A01 T02660143  RH  049%=      5-min Rain = 0
KNOR 180310Z 15009KT 26/14 A2995 RMK A01 T02640144  RH  050%=      5-min Rain = 0
KNOR 180315Z 15010KT 26/14 A2995 RMK A01 T02640144  RH  050%=      5-min Rain = 0
KNOR 180320Z 15010KT 27/15 A2995 RMK A01 T02650145  RH  050%=      5-min Rain = 0
KNOR 180325Z 15010KT 26/15 A2995 RMK A01 T02640145  RH  050%=      5-min Rain = 0
KNOR 180330Z 15010KT 26/15 A2995 RMK A01 T02640146  RH  050%=      5-min Rain = 0
KNOR 180335Z 15010KT 26/15 A2995 RMK A01 T02620146  RH  051%=      5-min Rain = 0
KNOR 180340Z 15010KT 26/15 A2995 RMK A01 T02620146  RH  051%=      5-min Rain = 0
KNOR 180345Z 15011KT 26/15 A2995 RMK A01 T02620146  RH  051%=      5-min Rain = 0
KNOR 180350Z 15010KT 26/15 A2995 RMK A01 T02610147  RH  051%=      5-min Rain = 0
KNOR 180355Z 15010KT 26/15 A2995 RMK A01 T02610147  RH  051%=      5-min Rain = 0
KNOR 180400Z 15010KT 26/15 A2995 RMK A01 T02600146  RH  052%=      5-min Rain = 0
KNOR 180405Z 15010KT 26/15 A2995 RMK A01 T02590146  RH  052%=      5-min Rain = 0
KNOR 180410Z 15010KT 26/15 A2995 RMK A01 T02580147  RH  052%=      5-min Rain = 0
KNOR 180415Z 15010KT 26/15 A2995 RMK A01 T02570146  RH  053%=      5-min Rain = 0
KNOR 180420Z 15010KT 26/15 A2995 RMK A01 T02570146  RH  052%=      5-min Rain = 0
KNOR 180425Z 15010KT 26/15 A2995 RMK A01 T02570146  RH  053%=      5-min Rain = 0
KNOR 180430Z 15010KT 26/15 A2995 RMK A01 T02560146  RH  053%=      5-min Rain = 0
KNOR 180435Z 15010KT 26/15 A2995 RMK A01 T02550146  RH  053%=      5-min Rain = 0
KNOR 180440Z 15010KT 26/15 A2995 RMK A01 T02550146  RH  053%=      5-min Rain = 0
KNOR 180445Z 15010KT 25/15 A2996 RMK A01 T02540146  RH  054%=      5-min Rain = 0
KNOR 180450Z 15010KT 25/15 A2995 RMK A01 T02530146  RH  054%=      5-min Rain = 0
KNOR 180455Z 15010KT 25/15 A2995 RMK A01 T02520146  RH  054%=      5-min Rain = 0

Page generated in 0.0092 seconds.